Time;durP1;ratioP1;P1;durP2;ratioP2;P2;SDS_P1;SDS_P2;PMS_P1;PMS_P2;Temp;Humidity;BMP_temperature;BMP_pressure;BME280_temperature;BME280_humidity;BME280_pressure;Samples;Min_cycle;Max_cycle;Signal;HPM_P1;HPM_P2
2024/04/01 00:01:02;;;;;;;4.45;3.67;;;17.50;66.10;;;;;;4997312;28;20075;-78
2024/04/01 00:03:29;;;;;;;6.63;3.42;;;17.50;66.10;;;;;;4996817;28;20041;-79
2024/04/01 00:05:55;;;;;;;5.72;3.47;;;17.50;65.90;;;;;;4985568;28;20594;-78
2024/04/01 00:08:22;;;;;;;6.40;3.38;;;17.50;66.10;;;;;;4982760;28;20042;-78
2024/04/01 00:10:51;;;;;;;5.50;3.63;;;17.50;66.10;;;;;;4993600;28;20042;-78
2024/04/01 00:13:18;;;;;;;5.63;3.58;;;17.50;66.40;;;;;;4978236;28;20039;-78
2024/04/01 00:15:45;;;;;;;5.72;3.60;;;17.50;66.10;;;;;;4995591;28;20087;-78
2024/04/01 00:18:11;;;;;;;5.30;3.38;;;17.50;66.30;;;;;;4996404;28;20041;-78
2024/04/01 00:20:37;;;;;;;4.00;3.42;;;17.50;66.20;;;;;;4987332;28;20046;-79
2024/04/01 00:23:04;;;;;;;5.55;3.70;;;17.50;66.50;;;;;;4980374;28;20034;-78
2024/04/01 00:25:31;;;;;;;5.43;3.60;;;17.50;66.60;;;;;;4996783;28;20121;-78
2024/04/01 00:27:57;;;;;;;5.88;3.80;;;17.50;66.30;;;;;;4976478;28;20045;-78
2024/04/01 00:30:24;;;;;;;5.25;3.65;;;17.50;66.40;;;;;;4993035;28;20096;-78
2024/04/01 00:32:50;;;;;;;7.03;3.63;;;17.50;66.40;;;;;;4996270;28;20062;-79
2024/04/01 00:35:17;;;;;;;5.80;3.58;;;17.50;66.50;;;;;;4990580;28;20034;-79
2024/04/01 00:37:43;;;;;;;6.18;3.90;;;17.50;66.50;;;;;;4977988;28;20046;-78
2024/04/01 00:40:10;;;;;;;5.07;3.78;;;17.50;66.50;;;;;;5012728;28;20034;-78
2024/04/01 00:42:36;;;;;;;5.32;3.60;;;17.50;66.80;;;;;;4980522;28;20034;-77
2024/04/01 00:45:03;;;;;;;4.72;3.53;;;17.50;66.50;;;;;;4990083;28;20038;-78
2024/04/01 00:47:30;;;;;;;7.28;3.80;;;17.50;66.60;;;;;;4996590;28;20034;-78
2024/04/01 00:49:57;;;;;;;5.43;4.00;;;17.50;66.50;;;;;;4997843;28;20108;-78
2024/04/01 00:52:25;;;;;;;5.25;3.90;;;17.50;66.60;;;;;;4995356;28;20034;-78
2024/04/01 00:54:51;;;;;;;4.93;3.58;;;17.50;66.80;;;;;;4994660;28;20121;-77
2024/04/01 00:57:18;;;;;;;6.55;4.38;;;17.50;67.00;;;;;;4994709;28;20146;-77
2024/04/01 00:59:44;;;;;;;6.07;4.00;;;17.40;66.70;;;;;;4995968;28;20034;-78
2024/04/01 01:02:12;;;;;;;6.15;4.03;;;17.50;66.70;;;;;;4990994;28;20565;-78
2024/04/01 01:04:38;;;;;;;7.25;3.88;;;17.50;66.50;;;;;;4977179;28;20485;-78
2024/04/01 01:07:05;;;;;;;5.68;3.78;;;17.50;66.60;;;;;;4994902;28;20042;-78
2024/04/01 01:09:33;;;;;;;6.53;4.43;;;17.50;66.60;;;;;;4978713;28;20038;-77
2024/04/01 01:11:59;;;;;;;5.88;3.90;;;17.40;66.70;;;;;;4987775;28;20042;-80
2024/04/01 01:14:25;;;;;;;5.35;4.15;;;17.50;67.10;;;;;;4988520;28;20093;-77
2024/04/01 01:16:51;;;;;;;6.80;4.13;;;17.40;66.90;;;;;;4975563;28;20042;-78
2024/04/01 01:19:20;;;;;;;5.80;3.53;;;17.40;67.00;;;;;;4975166;28;20102;-78
2024/04/01 01:21:48;;;;;;;6.40;4.03;;;17.40;66.70;;;;;;4994025;28;20057;-79
2024/04/01 01:24:14;;;;;;;6.07;4.10;;;17.40;67.10;;;;;;4981541;28;20057;-79
2024/04/01 01:26:40;;;;;;;6.53;3.88;;;17.40;66.90;;;;;;4985731;28;20029;-79
2024/04/01 01:29:06;;;;;;;7.10;4.35;;;17.40;66.80;;;;;;4990391;28;20042;-79
2024/04/01 01:31:32;;;;;;;6.70;4.03;;;17.40;66.80;;;;;;4977001;28;20048;-79
2024/04/01 01:33:58;;;;;;;5.93;3.88;;;17.40;67.00;;;;;;4996275;28;20478;-79
2024/04/01 01:36:25;;;;;;;7.57;3.80;;;17.40;66.80;;;;;;4980626;28;20069;-78
2024/04/01 01:38:51;;;;;;;6.18;3.95;;;17.40;67.00;;;;;;4984899;28;20045;-79
2024/04/01 01:41:17;;;;;;;6.53;4.28;;;17.40;67.00;;;;;;4988921;28;20082;-77
2024/04/01 01:43:43;;;;;;;6.10;3.80;;;17.40;67.00;;;;;;4977328;28;20073;-79
2024/04/01 01:46:09;;;;;;;6.00;4.07;;;17.40;67.00;;;;;;4995397;28;20034;-78
2024/04/01 01:48:35;;;;;;;6.80;4.43;;;17.40;67.10;;;;;;4978912;28;20038;-78
2024/04/01 01:51:01;;;;;;;7.50;4.00;;;17.40;67.50;;;;;;4988383;28;20081;-77
2024/04/01 01:53:27;;;;;;;15.73;4.30;;;17.40;67.20;;;;;;4988323;28;20051;-76
2024/04/01 01:55:53;;;;;;;5.30;3.83;;;17.40;67.20;;;;;;4978035;28;20041;-76
2024/04/01 01:58:19;;;;;;;5.38;3.97;;;17.40;67.30;;;;;;4995771;28;20480;-77
2024/04/01 02:00:45;;;;;;;5.25;3.60;;;17.40;67.50;;;;;;4992935;28;20037;-76
2024/04/01 02:03:11;;;;;;;8.23;4.40;;;17.40;67.60;;;;;;4990168;28;20234;-76
2024/04/01 02:05:39;;;;;;;7.68;4.20;;;17.40;67.80;;;;;;4984345;28;20034;-76
2024/04/01 02:08:05;;;;;;;7.38;4.43;;;17.40;67.60;;;;;;4990538;28;20042;-76
2024/04/01 02:10:35;;;;;;;7.05;4.13;;;17.40;67.50;;;;;;4977053;28;20041;-76
2024/04/01 02:13:04;;;;;;;8.10;4.38;;;17.40;67.60;;;;;;4974643;28;20140;-76
2024/04/01 02:15:30;;;;;;;7.50;4.50;;;17.40;67.70;;;;;;4992113;28;20042;-76
2024/04/01 02:17:56;;;;;;;5.80;4.28;;;17.30;67.50;;;;;;4982964;28;20129;-76
2024/04/01 02:20:22;;;;;;;8.30;4.75;;;17.30;67.50;;;;;;4981761;28;20046;-77
2024/04/01 02:22:48;;;;;;;7.20;4.25;;;17.30;67.80;;;;;;4993132;28;20512;-77
2024/04/01 02:25:17;;;;;;;9.63;4.72;;;17.30;67.60;;;;;;4978835;28;20027;-77
2024/04/01 02:27:45;;;;;;;8.00;4.55;;;17.30;67.40;;;;;;4994463;28;20053;-76
2024/04/01 02:30:11;;;;;;;7.03;4.50;;;17.30;67.40;;;;;;4986599;28;20034;-77
2024/04/01 02:32:37;;;;;;;7.18;4.32;;;17.30;67.90;;;;;;4986074;28;20125;-76
2024/04/01 02:35:04;;;;;;;7.38;4.30;;;17.30;67.50;;;;;;4998033;28;20034;-77
2024/04/01 02:37:30;;;;;;;6.38;5.00;;;17.30;67.50;;;;;;4999425;28;20041;-76
2024/04/01 02:39:56;;;;;;;8.60;4.43;;;17.30;67.60;;;;;;4977576;28;20507;-77
2024/04/01 02:42:22;;;;;;;4.80;4.22;;;17.30;67.50;;;;;;4994193;28;20156;-77
2024/04/01 02:44:48;;;;;;;6.70;4.47;;;17.30;67.40;;;;;;4988428;28;20178;-77
2024/04/01 02:47:14;;;;;;;8.50;4.50;;;17.30;67.50;;;;;;4983979;28;20513;-77
2024/04/01 02:49:40;;;;;;;6.43;4.60;;;17.30;67.50;;;;;;4996740;28;20038;-77
2024/04/01 02:52:06;;;;;;;6.03;4.60;;;17.30;67.70;;;;;;4978869;28;20034;-77
2024/04/01 02:54:32;;;;;;;6.43;4.10;;;17.30;67.70;;;;;;4994775;28;20042;-77
2024/04/01 02:56:58;;;;;;;7.78;4.82;;;17.30;67.40;;;;;;4986826;28;20457;-77
2024/04/01 02:59:25;;;;;;;6.78;4.68;;;17.30;67.40;;;;;;4984004;28;20038;-76
2024/04/01 03:01:51;;;;;;;6.63;4.55;;;17.30;67.80;;;;;;4995298;28;20504;-78
2024/04/01 03:04:17;;;;;;;7.30;4.75;;;17.20;67.40;;;;;;4977299;28;20034;-78
2024/04/01 03:06:43;;;;;;;8.07;4.97;;;17.20;67.40;;;;;;4996028;28;20891;-78
2024/04/01 03:09:09;;;;;;;7.53;4.68;;;17.30;67.60;;;;;;5012771;28;20076;-77
2024/04/01 03:11:36;;;;;;;6.43;4.53;;;17.20;67.50;;;;;;4989453;28;20039;-79
2024/04/01 03:14:02;;;;;;;9.95;4.35;;;17.20;67.60;;;;;;4982322;28;20485;-78
2024/04/01 03:16:28;;;;;;;5.57;4.57;;;17.20;67.50;;;;;;4997848;28;20041;-78
2024/04/01 03:18:54;;;;;;;7.80;5.18;;;17.20;67.50;;;;;;4978431;28;20047;-77
2024/04/01 03:21:20;;;;;;;11.77;4.93;;;17.20;67.80;;;;;;4991775;28;20034;-77
2024/04/01 03:23:46;;;;;;;8.18;4.82;;;17.20;67.40;;;;;;4987620;28;20122;-77
2024/04/01 03:26:12;;;;;;;7.22;4.70;;;17.20;67.50;;;;;;4982588;28;20030;-78
2024/04/01 03:28:38;;;;;;;7.85;4.72;;;17.20;68.00;;;;;;4996232;28;20042;-79
2024/04/01 03:31:06;;;;;;;7.32;4.55;;;17.20;67.60;;;;;;4976937;28;20117;-78
2024/04/01 03:33:33;;;;;;;9.00;5.13;;;17.20;67.40;;;;;;4993529;28;20125;-77
2024/04/01 03:35:59;;;;;;;6.68;4.85;;;17.20;67.50;;;;;;4985515;28;20136;-76
2024/04/01 03:38:25;;;;;;;8.73;5.03;;;17.20;67.40;;;;;;4983156;28;20034;-77
2024/04/01 03:40:52;;;;;;;7.57;4.97;;;17.20;67.60;;;;;;4995131;28;20026;-76
2024/04/01 03:43:20;;;;;;;8.50;5.15;;;17.20;67.50;;;;;;4978130;28;20027;-77
2024/04/01 03:45:46;;;;;;;10.45;4.82;;;17.20;67.50;;;;;;4995217;28;20026;-75
2024/04/01 03:48:12;;;;;;;7.53;5.10;;;17.20;67.60;;;;;;4982757;28;20062;-77
2024/04/01 03:50:42;;;;;;;8.65;4.60;;;17.30;67.70;;;;;;4985915;28;20054;-76
2024/04/01 03:53:08;;;;;;;9.52;5.15;;;17.20;67.60;;;;;;4989117;28;20043;-77
2024/04/01 03:55:34;;;;;;;9.05;5.35;;;17.20;67.50;;;;;;4977790;28;20035;-76
2024/04/01 03:58:00;;;;;;;10.63;5.15;;;17.20;67.50;;;;;;4996360;28;20034;-76
2024/04/01 04:00:26;;;;;;;6.13;5.03;;;17.20;67.60;;;;;;4981568;28;20519;-75
2024/04/01 04:02:53;;;;;;;9.10;5.07;;;17.20;67.60;;;;;;4987116;28;20061;-76
2024/04/01 04:05:20;;;;;;;9.43;5.65;;;17.20;67.80;;;;;;4990111;28;20046;-76
2024/04/01 04:07:46;;;;;;;7.63;5.10;;;17.20;67.90;;;;;;4977214;28;20461;-78
2024/04/01 04:10:12;;;;;;;8.43;5.18;;;17.30;67.70;;;;;;4997188;28;20030;-78
2024/04/01 04:12:38;;;;;;;7.82;5.10;;;17.20;67.60;;;;;;4991342;28;20035;-76
2024/04/01 04:15:05;;;;;;;8.80;5.15;;;17.20;67.60;;;;;;4989228;28;20066;-73
2024/04/01 04:17:31;;;;;;;8.73;5.40;;;17.30;67.60;;;;;;4987164;28;20601;-77
2024/04/01 04:19:58;;;;;;;10.63;6.07;;;17.30;67.60;;;;;;4978992;28;20077;-77
2024/04/01 04:22:23;;;;;;;7.50;4.93;;;17.20;67.70;;;;;;4997373;28;20039;-77
2024/04/01 04:24:50;;;;;;;7.60;4.88;;;17.30;67.80;;;;;;4978117;28;20035;-77
2024/04/01 04:27:16;;;;;;;9.73;5.80;;;17.30;67.80;;;;;;4990439;28;20125;-78
2024/04/01 04:29:42;;;;;;;8.55;5.53;;;17.30;67.60;;;;;;4982676;28;20512;-78
2024/04/01 04:32:13;;;;;;;7.60;5.20;;;17.30;67.70;;;;;;4994581;28;20058;-78
2024/04/01 04:34:39;;;;;;;9.13;5.60;;;17.30;67.90;;;;;;4994148;28;20350;-82
2024/04/01 04:37:06;;;;;;;9.00;5.47;;;17.30;67.70;;;;;;4975379;28;20034;-78
2024/04/01 04:39:33;;;;;;;9.02;5.22;;;17.30;67.60;;;;;;4991781;28;20044;-79
2024/04/01 04:44:44;;;;;;;8.68;5.20;;;17.30;67.70;;;;;;4994339;28;20049;-78
2024/04/01 04:47:10;;;;;;;10.05;5.47;;;17.40;67.60;;;;;;4994149;28;20058;-78
2024/04/01 04:49:36;;;;;;;12.15;5.90;;;17.30;68.00;;;;;;4993112;28;20038;-76
2024/04/01 04:52:02;;;;;;;7.60;5.20;;;17.30;67.80;;;;;;4994275;28;20025;-76
2024/04/01 04:54:29;;;;;;;10.05;5.80;;;17.30;67.60;;;;;;4993159;28;20042;-76
2024/04/01 04:56:55;;;;;;;10.20;6.00;;;17.40;67.90;;;;;;4994201;28;20088;-78
2024/04/01 04:59:21;;;;;;;10.73;6.18;;;17.40;68.00;;;;;;4993465;28;20083;-77
2024/04/01 05:01:47;;;;;;;14.02;6.85;;;17.40;68.10;;;;;;4992993;28;20030;-78
2024/04/01 05:04:13;;;;;;;13.63;6.28;;;17.40;68.10;;;;;;4995198;28;20085;-81
2024/04/01 05:06:40;;;;;;;12.90;6.63;;;17.40;68.10;;;;;;4993966;28;20041;-76
2024/04/01 05:09:08;;;;;;;18.48;6.72;;;17.40;68.20;;;;;;4980913;28;20049;-78
2024/04/01 05:11:35;;;;;;;12.52;7.00;;;17.40;68.30;;;;;;4984700;28;20409;-79
2024/04/01 05:14:03;;;;;;;17.23;6.90;;;17.40;68.40;;;;;;4990690;28;20054;-79
2024/04/01 05:16:29;;;;;;;12.15;6.63;;;17.40;68.80;;;;;;4977345;28;20038;-79
2024/04/01 05:18:55;;;;;;;11.27;6.90;;;17.50;69.10;;;;;;4991973;28;20050;-78
2024/04/01 05:21:22;;;;;;;12.82;7.00;;;17.50;69.50;;;;;;4980404;28;20093;-78
2024/04/01 05:23:52;;;;;;;11.85;7.15;;;17.50;69.90;;;;;;4984655;28;20054;-80
2024/04/01 05:26:19;;;;;;;13.13;7.50;;;17.50;70.00;;;;;;4989732;28;20031;-80
2024/04/01 05:28:45;;;;;;;14.07;7.47;;;17.60;70.10;;;;;;4975622;28;20030;-79
2024/04/01 05:31:11;;;;;;;12.40;6.93;;;17.60;70.30;;;;;;4995885;28;20030;-79
2024/04/01 05:33:37;;;;;;;10.02;6.75;;;17.60;70.40;;;;;;4988403;28;20046;-79
2024/04/01 05:36:04;;;;;;;13.85;6.80;;;17.60;70.40;;;;;;4988182;28;20096;-79
2024/04/01 05:38:30;;;;;;;15.40;7.28;;;17.70;70.50;;;;;;4994529;28;20049;-88
2024/04/01 05:40:56;;;;;;;10.98;6.70;;;17.80;70.50;;;;;;4995177;28;20053;-86
2024/04/01 05:43:22;;;;;;;8.45;6.50;;;17.80;70.10;;;;;;4985341;28;20038;-89
2024/04/01 05:45:49;;;;;;;13.50;6.93;;;17.80;70.00;;;;;;4998460;28;20037;-94
2024/04/01 05:48:19;;;;;;;12.45;6.15;;;17.80;69.70;;;;;;4980107;28;20423;-88
2024/04/01 05:50:49;;;;;;;14.20;6.78;;;17.90;69.60;;;;;;4975945;28;20584;-82
2024/04/01 05:53:16;;;;;;;11.13;6.63;;;17.90;69.50;;;;;;4975012;28;20489;-84
2024/04/01 05:55:42;;;;;;;10.30;6.15;;;17.90;69.50;;;;;;4974209;28;20030;-83
2024/04/01 05:58:08;;;;;;;10.07;6.00;;;18.00;69.60;;;;;;4993350;28;20046;-84
2024/04/01 06:00:35;;;;;;;14.55;6.85;;;18.10;69.70;;;;;;4998546;28;20400;-80
2024/04/01 06:03:01;;;;;;;11.18;5.80;;;18.10;69.60;;;;;;5013818;28;20048;-82
2024/04/01 06:05:28;;;;;;;11.98;5.80;;;18.20;69.60;;;;;;4997396;28;20052;-84
2024/04/01 06:07:55;;;;;;;11.98;5.68;;;18.20;69.40;;;;;;4997090;28;20048;-83
2024/04/01 06:10:21;;;;;;;10.13;5.97;;;18.30;69.20;;;;;;5013703;28;20037;-81
2024/04/01 06:12:48;;;;;;;10.82;5.88;;;18.40;69.10;;;;;;4998796;28;20088;-81
2024/04/01 06:15:14;;;;;;;9.68;5.18;;;18.50;69.10;;;;;;4998983;28;20038;-80
2024/04/01 06:17:40;;;;;;;13.20;6.30;;;18.50;69.10;;;;;;4996730;28;20042;-80
2024/04/01 06:20:12;;;;;;;16.92;6.80;;;18.60;69.80;;;;;;4998368;28;20041;-80
2024/04/01 06:22:38;;;;;;;14.68;5.85;;;18.70;70.30;;;;;;4996032;28;20030;-82
2024/04/01 06:25:05;;;;;;;14.63;6.75;;;18.90;70.70;;;;;;5003888;28;20046;-87
2024/04/01 06:27:31;;;;;;;16.33;6.85;;;19.00;70.90;;;;;;4991459;28;20049;-86
2024/04/01 06:29:57;;;;;;;15.55;6.38;;;19.10;70.20;;;;;;4990425;28;20510;-84
2024/04/01 06:32:24;;;;;;;15.07;6.28;;;19.30;69.60;;;;;;5001983;28;20535;-86
2024/04/01 06:34:52;;;;;;;14.23;6.25;;;19.30;69.10;;;;;;4994818;28;20137;-85
2024/04/01 06:37:18;;;;;;;14.27;6.30;;;19.40;68.40;;;;;;4985103;28;20553;-85
2024/04/01 06:39:45;;;;;;;18.35;7.25;;;19.60;67.60;;;;;;4993383;28;20528;-87
2024/04/01 06:42:11;;;;;;;14.98;6.10;;;19.60;67.10;;;;;;4971314;28;20096;-87
2024/04/01 06:44:37;;;;;;;12.80;7.15;;;19.70;66.60;;;;;;4977477;28;20523;-85
2024/04/01 06:47:03;;;;;;;15.13;7.20;;;19.80;65.90;;;;;;5012358;28;20057;-87
2024/04/01 06:49:29;;;;;;;14.65;6.57;;;19.90;65.40;;;;;;4998659;28;20061;-86
2024/04/01 06:51:55;;;;;;;15.38;6.47;;;20.00;64.60;;;;;;4981795;28;20132;-90
2024/04/01 06:54:21;;;;;;;13.90;6.72;;;20.10;64.10;;;;;;4981985;28;20520;-86
2024/04/01 06:56:47;;;;;;;15.52;6.65;;;20.20;63.80;;;;;;5002171;28;20112;-84
2024/04/01 06:59:13;;;;;;;14.68;6.50;;;20.30;63.70;;;;;;4994465;28;20026;-84
2024/04/01 07:01:40;;;;;;;13.18;6.38;;;20.40;63.30;;;;;;4993415;28;20027;-84
2024/04/01 07:04:06;;;;;;;13.68;6.20;;;20.50;62.70;;;;;;4977011;28;20761;-84
2024/04/01 07:06:32;;;;;;;12.95;6.18;;;20.60;62.40;;;;;;4991969;28;20037;-85
2024/04/01 07:08:58;;;;;;;12.43;6.28;;;20.60;62.00;;;;;;4991923;28;20049;-85
2024/04/01 07:11:24;;;;;;;10.57;6.10;;;20.70;61.40;;;;;;4962161;28;20034;-90
2024/04/01 07:13:50;;;;;;;12.18;6.43;;;20.80;61.20;;;;;;4984816;28;20030;-86
2024/04/01 07:16:16;;;;;;;15.13;6.43;;;20.90;61.20;;;;;;4995796;28;20081;-84
2024/04/01 07:18:42;;;;;;;12.30;6.18;;;21.00;61.20;;;;;;4994682;28;20065;-85
2024/04/01 07:21:08;;;;;;;12.38;5.82;;;21.00;61.00;;;;;;4979079;28;20120;-85
2024/04/01 07:23:34;;;;;;;14.95;6.03;;;21.10;60.50;;;;;;4996326;28;20061;-85
2024/04/01 07:26:00;;;;;;;17.98;6.72;;;21.10;60.10;;;;;;4996531;28;20493;-83
2024/04/01 07:28:26;;;;;;;15.40;6.13;;;21.20;59.60;;;;;;4995916;28;20084;-81
2024/04/01 07:30:52;;;;;;;14.32;6.35;;;21.30;59.40;;;;;;4977425;28;20030;-81
2024/04/01 07:33:19;;;;;;;12.10;5.63;;;21.30;59.90;;;;;;4991783;28;20035;-81
2024/04/01 07:35:44;;;;;;;13.13;6.35;;;21.40;59.40;;;;;;4986062;28;20031;-82
2024/04/01 07:38:11;;;;;;;13.48;5.88;;;21.50;59.40;;;;;;4975083;28;20035;-82
2024/04/01 07:40:37;;;;;;;16.83;6.00;;;21.50;58.90;;;;;;4994099;28;20031;-82
2024/04/01 07:43:03;;;;;;;20.60;6.28;;;21.60;58.30;;;;;;4996331;28;20491;-82
2024/04/01 07:45:29;;;;;;;14.18;6.43;;;21.70;58.40;;;;;;4979686;28;20074;-84
2024/04/01 07:47:55;;;;;;;13.00;5.95;;;21.70;58.20;;;;;;5008407;28;20034;-82
2024/04/01 07:50:21;;;;;;;13.70;5.78;;;21.80;57.90;;;;;;4985146;28;20092;-90
2024/04/01 07:52:47;;;;;;;10.68;5.80;;;21.80;58.10;;;;;;4977309;28;20107;-79
2024/04/01 07:55:13;;;;;;;13.55;5.50;;;21.90;58.00;;;;;;4976193;28;20517;-81
2024/04/01 07:57:39;;;;;;;11.43;5.20;;;21.90;57.50;;;;;;4992555;28;20604;-81
2024/04/01 08:00:06;;;;;;;12.85;5.18;;;22.00;59.00;;;;;;4982277;28;20827;-80
2024/04/01 08:02:37;;;;;;;14.27;5.15;;;22.00;59.60;;;;;;4985389;28;20074;-81
2024/04/01 08:05:03;;;;;;;16.35;5.32;;;22.00;58.10;;;;;;4991344;28;20038;-80
2024/04/01 08:07:29;;;;;;;14.05;5.63;;;22.10;57.90;;;;;;4973893;28;20042;-80
2024/04/01 08:09:55;;;;;;;14.88;5.53;;;22.10;57.60;;;;;;5011055;28;20026;-87
2024/04/01 08:12:21;;;;;;;8.57;5.15;;;22.10;58.50;;;;;;4982034;28;20081;-86
2024/04/01 08:14:47;;;;;;;15.45;5.13;;;22.10;58.80;;;;;;4985855;28;20043;-76
2024/04/01 08:17:13;;;;;;;10.23;4.65;;;22.20;58.10;;;;;;4988608;28;20043;-76
2024/04/01 08:19:39;;;;;;;13.88;5.13;;;22.20;58.70;;;;;;4975686;28;20050;-76
2024/04/01 08:22:06;;;;;;;9.65;4.80;;;22.30;60.50;;;;;;4994008;28;20042;-76
2024/04/01 08:24:32;;;;;;;12.52;5.28;;;22.30;60.50;;;;;;4981769;28;20596;-76
2024/04/01 08:26:58;;;;;;;16.05;5.82;;;22.40;60.90;;;;;;4984926;28;20124;-76
2024/04/01 08:29:24;;;;;;;12.68;5.15;;;22.40;58.10;;;;;;4981609;28;20849;-78
2024/04/01 08:31:50;;;;;;;14.00;5.00;;;22.40;60.10;;;;;;5007836;28;20042;-76
2024/04/01 08:34:16;;;;;;;17.20;5.43;;;22.50;58.50;;;;;;4994365;28;20034;-78
2024/04/01 08:36:42;;;;;;;11.65;4.90;;;22.50;57.70;;;;;;5009639;28;20129;-79
2024/04/01 08:39:08;;;;;;;12.13;5.00;;;22.50;59.00;;;;;;4980262;28;20505;-77
2024/04/01 08:41:39;;;;;;;15.07;4.95;;;22.50;57.80;;;;;;4982025;28;20424;-77
2024/04/01 08:44:13;;;;;;;12.05;4.78;;;22.60;55.80;;;;;;4990221;28;20050;-78
2024/04/01 08:46:51;;;;;;;11.40;4.20;;;22.60;57.00;;;;;;4974067;28;20034;-78
2024/04/01 08:49:50;;;;;;;10.50;4.47;;;22.50;56.30;;;;;;4992597;28;20038;-77
2024/04/01 08:52:24;;;;;;;14.07;4.18;;;22.60;54.20;;;;;;4973506;28;20371;-77
2024/04/01 08:54:51;;;;;;;9.93;3.80;;;22.60;53.80;;;;;;4991617;28;20042;-80
2024/04/01 08:57:17;;;;;;;18.95;4.75;;;22.60;56.90;;;;;;4993091;28;20631;-75
2024/04/01 08:59:45;;;;;;;13.68;3.95;;;22.60;53.70;;;;;;4982533;28;20066;-78
2024/04/01 09:02:11;;;;;;;12.88;4.47;;;22.60;53.30;;;;;;4973222;28;20389;-77
2024/04/01 09:04:37;;;;;;;10.05;3.75;;;22.60;53.60;;;;;;4974667;28;20034;-76
2024/04/01 09:07:03;;;;;;;9.43;3.83;;;22.60;51.80;;;;;;4992853;28;20034;-76
2024/04/01 09:09:29;;;;;;;7.45;3.63;;;22.50;51.10;;;;;;4978039;28;20038;-76
2024/04/01 09:11:57;;;;;;;8.82;3.70;;;22.50;51.40;;;;;;4985235;28;20050;-76
2024/04/01 09:14:23;;;;;;;6.70;3.40;;;22.60;51.40;;;;;;4987990;28;20047;-75
2024/04/01 09:16:49;;;;;;;8.57;3.55;;;22.60;52.50;;;;;;4990765;28;20034;-76
2024/04/01 09:19:22;;;;;;;9.88;3.55;;;22.60;53.20;;;;;;5000579;28;20038;-76
2024/04/01 09:21:51;;;;;;;7.60;3.05;;;22.60;53.60;;;;;;4995393;28;20098;-76
2024/04/01 09:24:17;;;;;;;7.57;3.03;;;22.60;51.30;;;;;;4981283;28;20039;-78
2024/04/01 09:26:43;;;;;;;6.25;3.33;;;22.60;51.20;;;;;;4990208;28;20038;-77
2024/04/01 09:29:10;;;;;;;5.72;2.80;;;22.60;52.30;;;;;;4992577;28;20046;-77
2024/04/01 09:31:36;;;;;;;4.93;2.47;;;22.70;52.80;;;;;;4994508;28;20029;-80
2024/04/01 09:34:03;;;;;;;6.13;2.50;;;22.60;52.00;;;;;;4974622;28;20030;-78
2024/04/01 09:36:29;;;;;;;6.88;2.90;;;22.70;51.90;;;;;;4988597;28;20042;-81
2024/04/01 09:38:57;;;;;;;8.32;2.92;;;22.70;52.10;;;;;;4982396;28;20084;-79
2024/04/01 09:41:24;;;;;;;9.48;3.20;;;22.70;52.40;;;;;;4979018;28;20179;-80
2024/04/01 09:43:57;;;;;;;10.02;3.08;;;22.70;51.60;;;;;;4990325;28;20087;-79
2024/04/01 09:46:24;;;;;;;9.85;3.10;;;22.70;52.20;;;;;;4973814;28;20038;-79
2024/04/01 09:48:51;;;;;;;8.52;2.72;;;22.70;52.20;;;;;;4990166;28;20100;-79
2024/04/01 09:51:19;;;;;;;7.20;3.35;;;22.70;53.00;;;;;;4979069;28;20030;-78
2024/04/01 09:53:46;;;;;;;5.53;2.72;;;22.70;55.50;;;;;;4982602;28;21046;-78
2024/04/01 09:56:46;;;;;;;8.52;2.25;;;22.70;54.20;;;;;;4987560;28;20030;-79
2024/04/01 09:59:18;;;;;;;9.93;3.25;;;22.70;53.40;;;;;;4977432;28;20042;-79
2024/04/01 10:01:59;;;;;;;10.75;3.00;;;22.70;53.10;;;;;;4991828;28;20065;-79
2024/04/01 10:04:40;;;;;;;11.75;3.22;;;22.70;53.10;;;;;;4974697;28;20496;-79
2024/04/01 10:07:25;;;;;;;9.60;3.53;;;22.70;53.10;;;;;;4986958;28;20043;-79
2024/04/01 10:10:22;;;;;;;7.77;3.10;;;22.70;52.80;;;;;;4991232;28;20064;-78
2024/04/01 10:13:06;;;;;;;8.88;3.17;;;22.70;52.90;;;;;;4979937;28;20046;-78
2024/04/01 10:15:44;;;;;;;12.35;3.92;;;22.70;53.40;;;;;;4977353;28;20043;-79
2024/04/01 10:18:45;;;;;;;12.98;3.95;;;22.70;53.20;;;;;;4984831;28;20163;-79
2024/04/01 10:21:30;;;;;;;16.27;3.55;;;22.70;53.30;;;;;;4996114;28;20052;-80
2024/04/01 10:24:02;;;;;;;8.77;3.45;;;22.60;53.50;;;;;;4984762;28;20099;-80
2024/04/01 10:27:13;;;;;;;12.23;3.85;;;22.60;53.20;;;;;;4986592;28;20419;-81
2024/04/01 10:30:00;;;;;;;13.52;3.85;;;22.60;53.60;;;;;;4980986;28;20576;-80
2024/04/01 10:32:47;;;;;;;15.60;4.22;;;22.70;53.20;;;;;;4986765;28;20110;-78
2024/04/01 10:35:34;;;;;;;9.43;3.67;;;22.70;53.30;;;;;;4978737;28;20136;-85
2024/04/01 10:38:37;;;;;;;11.27;3.38;;;22.70;53.30;;;;;;4989109;28;20125;-82
2024/04/01 10:41:29;;;;;;;12.68;3.75;;;22.70;53.30;;;;;;4976616;28;20034;-75
2024/04/01 10:44:17;;;;;;;9.10;3.10;;;22.70;53.50;;;;;;4990079;28;20561;-75
2024/04/01 10:46:59;;;;;;;8.93;3.22;;;22.60;53.70;;;;;;4977417;28;20046;-77
2024/04/01 10:49:42;;;;;;;9.68;3.63;;;22.60;54.20;;;;;;4995813;28;20073;-77
2024/04/01 10:52:28;;;;;;;11.73;3.80;;;22.70;54.20;;;;;;4977154;28;20092;-78
2024/04/01 10:54:54;;;;;;;12.77;3.83;;;22.70;54.30;;;;;;4989095;28;20125;-79
2024/04/01 10:58:01;;;;;;;13.23;3.90;;;22.70;54.10;;;;;;4990024;28;20041;-76
2024/04/01 11:00:54;;;;;;;9.23;3.55;;;22.70;54.10;;;;;;4980416;28;20045;-81
2024/04/01 11:03:48;;;;;;;12.73;3.63;;;22.70;54.30;;;;;;4990301;28;20038;-79
2024/04/01 11:06:38;;;;;;;11.00;3.33;;;22.70;54.30;;;;;;4982835;28;20077;-79
2024/04/01 11:09:45;;;;;;;11.15;3.38;;;22.70;54.20;;;;;;4983159;28;20533;-78
2024/04/01 11:12:32;;;;;;;9.00;3.20;;;22.70;53.40;;;;;;4981476;28;20092;-78
2024/04/01 11:15:03;;;;;;;9.00;3.67;;;22.70;53.00;;;;;;4999848;28;20081;-79
2024/04/01 11:17:30;;;;;;;8.48;2.78;;;22.70;53.50;;;;;;4985636;28;20053;-80
2024/04/01 11:20:21;;;;;;;8.80;3.13;;;22.70;53.60;;;;;;4980683;28;20141;-79
2024/04/01 11:23:11;;;;;;;11.30;3.58;;;22.70;53.70;;;;;;4990856;28;20416;-76
2024/04/01 11:25:37;;;;;;;9.25;2.85;;;22.70;53.70;;;;;;4991140;28;20031;-77
2024/04/01 11:28:11;;;;;;;10.90;3.47;;;22.70;53.10;;;;;;4992490;28;20046;-77
2024/04/01 11:30:37;;;;;;;10.07;3.20;;;22.80;52.30;;;;;;4979477;28;20074;-79
2024/04/01 11:33:06;;;;;;;7.05;2.85;;;22.70;51.60;;;;;;4986872;28;20034;-80
2024/04/01 11:36:10;;;;;;;13.25;3.40;;;22.80;52.10;;;;;;4987790;28;20031;-80
2024/04/01 11:38:51;;;;;;;9.65;3.20;;;22.70;50.70;;;;;;4936418;28;20039;-80
2024/04/01 11:41:20;;;;;;;10.55;2.95;;;22.80;52.60;;;;;;4935571;28;20031;-79
2024/04/01 11:43:48;;;;;;;9.07;2.97;;;22.70;52.50;;;;;;4934214;28;20847;-78
2024/04/01 11:46:16;;;;;;;6.47;2.55;;;22.70;52.60;;;;;;4935253;29;20039;-78
2024/04/01 11:48:42;;;;;;;8.15;3.20;;;22.70;52.60;;;;;;4935616;28;20043;-79
2024/04/01 11:51:09;;;;;;;7.88;2.95;;;22.70;52.90;;;;;;4936467;28;20039;-78
2024/04/01 11:53:41;;;;;;;5.97;2.58;;;22.70;52.90;;;;;;4934001;28;20513;-77
2024/04/01 11:56:07;;;;;;;9.60;3.60;;;22.70;53.10;;;;;;4934682;28;20080;-77
2024/04/01 11:58:33;;;;;;;7.32;2.80;;;22.70;52.10;;;;;;4936064;29;20126;-79
2024/04/01 12:01:01;;;;;;;12.05;3.20;;;22.70;51.90;;;;;;4955579;28;20558;-82
2024/04/01 12:03:41;;;;;;;7.65;2.53;;;22.70;51.40;;;;;;4951660;28;20043;-84
2024/04/01 12:06:08;;;;;;;7.47;2.75;;;22.70;52.10;;;;;;4942297;28;20069;-83
2024/04/01 12:08:35;;;;;;;7.10;3.03;;;22.70;52.40;;;;;;4954220;28;20042;-84
2024/04/01 12:11:05;;;;;;;10.43;3.30;;;22.70;52.60;;;;;;4944975;28;20039;-83
2024/04/01 12:13:32;;;;;;;8.05;2.85;;;22.70;52.40;;;;;;4983367;28;20555;-86
2024/04/01 12:16:01;;;;;;;5.85;2.60;;;22.70;52.20;;;;;;4992514;28;20039;-78
2024/04/01 12:18:27;;;;;;;4.90;3.00;;;22.80;52.60;;;;;;4989223;28;20069;-84
2024/04/01 12:20:55;;;;;;;8.82;2.90;;;22.70;52.40;;;;;;4987659;28;20505;-85
2024/04/01 12:23:23;;;;;;;5.15;2.50;;;22.70;52.10;;;;;;4963471;28;20045;-80
2024/04/01 12:25:49;;;;;;;6.38;3.10;;;22.70;52.40;;;;;;4975879;28;20097;-77
2024/04/01 12:28:17;;;;;;;9.75;2.75;;;22.80;52.90;;;;;;4995199;28;20034;-79
2024/04/01 12:30:47;;;;;;;6.13;2.63;;;22.70;53.20;;;;;;4975611;28;20070;-77
2024/04/01 12:33:14;;;;;;;8.80;3.13;;;22.70;53.40;;;;;;4988901;28;20100;-77
2024/04/01 12:35:41;;;;;;;12.38;3.35;;;22.70;53.40;;;;;;4985358;28;20043;-78
2024/04/01 12:38:13;;;;;;;7.05;3.00;;;22.70;53.10;;;;;;4977851;28;20089;-78
2024/04/01 12:40:45;;;;;;;8.13;2.90;;;22.80;53.10;;;;;;4993228;28;20034;-78
2024/04/01 12:43:15;;;;;;;7.55;2.92;;;22.70;53.30;;;;;;4975217;28;20025;-78
2024/04/01 12:45:43;;;;;;;7.65;2.80;;;22.70;53.40;;;;;;4991142;28;20038;-78
2024/04/01 12:48:14;;;;;;;8.80;2.83;;;22.70;53.80;;;;;;4979673;28;20065;-78
2024/04/01 12:51:02;;;;;;;6.57;3.20;;;22.80;53.30;;;;;;4982136;28;20149;-79
2024/04/01 12:53:56;;;;;;;7.20;2.90;;;22.70;53.30;;;;;;4985835;28;20137;-79
2024/04/01 12:56:39;;;;;;;8.18;2.92;;;22.70;53.20;;;;;;4980835;28;20401;-79